sensor_id;sensor_type;location;lat;lon;timestamp;P1;durP1;ratioP1;P2;durP2;ratioP2
6033;SDS011;3045;43.226;27.858;2024-02-26T00:02:18;11.50;;;10.37;;
6033;SDS011;3045;43.226;27.858;2024-02-26T00:04:47;12.27;;;11.20;;
6033;SDS011;3045;43.226;27.858;2024-02-26T00:07:14;11.80;;;10.90;;
6033;SDS011;3045;43.226;27.858;2024-02-26T00:09:41;12.07;;;11.10;;
6033;SDS011;3045;43.226;27.858;2024-02-26T00:12:08;10.67;;;9.87;;
6033;SDS011;3045;43.226;27.858;2024-02-26T00:14:35;11.50;;;10.63;;
6033;SDS011;3045;43.226;27.858;2024-02-26T00:17:02;10.90;;;10.10;;
6033;SDS011;3045;43.226;27.858;2024-02-26T00:19:29;10.77;;;10.00;;
6033;SDS011;3045;43.226;27.858;2024-02-26T00:21:58;11.03;;;9.97;;
6033;SDS011;3045;43.226;27.858;2024-02-26T00:24:25;10.77;;;9.77;;
6033;SDS011;3045;43.226;27.858;2024-02-26T00:26:52;11.63;;;10.63;;
6033;SDS011;3045;43.226;27.858;2024-02-26T00:29:19;13.53;;;10.07;;
6033;SDS011;3045;43.226;27.858;2024-02-26T00:31:47;11.73;;;10.60;;
6033;SDS011;3045;43.226;27.858;2024-02-26T00:34:14;12.13;;;10.90;;
6033;SDS011;3045;43.226;27.858;2024-02-26T00:36:41;13.27;;;11.57;;
6033;SDS011;3045;43.226;27.858;2024-02-26T00:39:09;14.67;;;13.30;;
6033;SDS011;3045;43.226;27.858;2024-02-26T00:41:38;13.90;;;12.60;;
6033;SDS011;3045;43.226;27.858;2024-02-26T00:44:07;17.07;;;13.73;;
6033;SDS011;3045;43.226;27.858;2024-02-26T00:46:34;13.03;;;12.10;;
6033;SDS011;3045;43.226;27.858;2024-02-26T00:49:01;15.07;;;12.27;;
6033;SDS011;3045;43.226;27.858;2024-02-26T00:51:28;19.50;;;13.73;;
6033;SDS011;3045;43.226;27.858;2024-02-26T00:53:55;20.27;;;13.07;;
6033;SDS011;3045;43.226;27.858;2024-02-26T00:56:24;61.10;;;19.60;;
6033;SDS011;3045;43.226;27.858;2024-02-26T00:58:51;24.37;;;13.47;;
6033;SDS011;3045;43.226;27.858;2024-02-26T01:01:18;15.67;;;13.00;;
6033;SDS011;3045;43.226;27.858;2024-02-26T01:03:45;23.10;;;13.97;;
6033;SDS011;3045;43.226;27.858;2024-02-26T01:06:12;25.33;;;12.93;;
6033;SDS011;3045;43.226;27.858;2024-02-26T01:08:39;14.83;;;12.73;;
6033;SDS011;3045;43.226;27.858;2024-02-26T01:11:06;23.37;;;13.53;;
6033;SDS011;3045;43.226;27.858;2024-02-26T01:13:35;26.87;;;13.40;;
6033;SDS011;3045;43.226;27.858;2024-02-26T01:16:02;49.43;;;22.63;;
6033;SDS011;3045;43.226;27.858;2024-02-26T01:18:30;24.80;;;14.70;;
6033;SDS011;3045;43.226;27.858;2024-02-26T01:20:57;42.20;;;19.27;;
6033;SDS011;3045;43.226;27.858;2024-02-26T01:23:24;32.17;;;15.87;;
6033;SDS011;3045;43.226;27.858;2024-02-26T01:25:51;23.73;;;15.10;;
6033;SDS011;3045;43.226;27.858;2024-02-26T01:28:18;32.43;;;15.03;;
6033;SDS011;3045;43.226;27.858;2024-02-26T01:30:47;33.37;;;15.13;;
6033;SDS011;3045;43.226;27.858;2024-02-26T01:33:14;26.70;;;14.57;;
6033;SDS011;3045;43.226;27.858;2024-02-26T01:35:41;27.57;;;14.30;;
6033;SDS011;3045;43.226;27.858;2024-02-26T01:38:08;30.50;;;16.07;;
6033;SDS011;3045;43.226;27.858;2024-02-26T01:40:35;43.37;;;22.30;;
6033;SDS011;3045;43.226;27.858;2024-02-26T01:43:02;36.97;;;21.83;;
6033;SDS011;3045;43.226;27.858;2024-02-26T01:45:29;28.37;;;16.23;;
6033;SDS011;3045;43.226;27.858;2024-02-26T01:47:58;36.57;;;19.70;;
6033;SDS011;3045;43.226;27.858;2024-02-26T01:50:25;34.53;;;21.03;;
6033;SDS011;3045;43.226;27.858;2024-02-26T01:52:53;46.70;;;22.07;;
6033;SDS011;3045;43.226;27.858;2024-02-26T01:55:22;29.93;;;22.43;;
6033;SDS011;3045;43.226;27.858;2024-02-26T01:57:50;28.57;;;22.23;;
6033;SDS011;3045;43.226;27.858;2024-02-26T02:00:19;33.53;;;21.83;;
6033;SDS011;3045;43.226;27.858;2024-02-26T02:02:47;36.03;;;21.93;;
6033;SDS011;3045;43.226;27.858;2024-02-26T02:05:16;31.70;;;21.77;;
6033;SDS011;3045;43.226;27.858;2024-02-26T02:07:43;31.40;;;21.57;;
6033;SDS011;3045;43.226;27.858;2024-02-26T02:10:11;36.10;;;21.50;;
6033;SDS011;3045;43.226;27.858;2024-02-26T02:12:39;36.20;;;18.33;;
6033;SDS011;3045;43.226;27.858;2024-02-26T02:15:07;36.77;;;19.40;;
6033;SDS011;3045;43.226;27.858;2024-02-26T02:17:34;39.93;;;21.13;;
6033;SDS011;3045;43.226;27.858;2024-02-26T02:20:01;45.47;;;18.40;;
6033;SDS011;3045;43.226;27.858;2024-02-26T02:22:30;35.57;;;19.73;;
6033;SDS011;3045;43.226;27.858;2024-02-26T02:24:58;33.83;;;20.20;;
6033;SDS011;3045;43.226;27.858;2024-02-26T02:27:26;32.47;;;18.57;;
6033;SDS011;3045;43.226;27.858;2024-02-26T02:29:55;41.03;;;19.77;;
6033;SDS011;3045;43.226;27.858;2024-02-26T02:32:22;38.33;;;17.83;;
6033;SDS011;3045;43.226;27.858;2024-02-26T02:34:51;39.50;;;19.07;;
6033;SDS011;3045;43.226;27.858;2024-02-26T02:37:18;33.50;;;19.17;;
6033;SDS011;3045;43.226;27.858;2024-02-26T02:39:46;14.23;;;12.77;;
6033;SDS011;3045;43.226;27.858;2024-02-26T02:42:13;12.53;;;11.40;;
6033;SDS011;3045;43.226;27.858;2024-02-26T02:44:41;12.80;;;11.73;;
6033;SDS011;3045;43.226;27.858;2024-02-26T02:47:09;15.23;;;11.10;;
6033;SDS011;3045;43.226;27.858;2024-02-26T02:49:36;11.60;;;10.60;;
6033;SDS011;3045;43.226;27.858;2024-02-26T02:52:04;20.17;;;13.93;;
6033;SDS011;3045;43.226;27.858;2024-02-26T02:54:31;21.73;;;13.83;;
6033;SDS011;3045;43.226;27.858;2024-02-26T02:57:00;12.17;;;11.00;;
6033;SDS011;3045;43.226;27.858;2024-02-26T02:59:27;10.20;;;9.40;;
6033;SDS011;3045;43.226;27.858;2024-02-26T03:01:54;11.63;;;10.30;;
6033;SDS011;3045;43.226;27.858;2024-02-26T03:04:21;16.13;;;11.60;;
6033;SDS011;3045;43.226;27.858;2024-02-26T03:06:48;19.47;;;13.70;;
6033;SDS011;3045;43.226;27.858;2024-02-26T03:09:15;25.50;;;16.20;;
6033;SDS011;3045;43.226;27.858;2024-02-26T03:11:42;20.63;;;15.30;;
6033;SDS011;3045;43.226;27.858;2024-02-26T03:14:10;17.83;;;13.90;;
6033;SDS011;3045;43.226;27.858;2024-02-26T03:16:38;18.30;;;15.27;;
6033;SDS011;3045;43.226;27.858;2024-02-26T03:19:05;28.17;;;17.00;;
6033;SDS011;3045;43.226;27.858;2024-02-26T03:21:32;21.83;;;14.50;;
6033;SDS011;3045;43.226;27.858;2024-02-26T03:23:59;24.17;;;15.50;;
6033;SDS011;3045;43.226;27.858;2024-02-26T03:26:26;27.30;;;15.13;;
6033;SDS011;3045;43.226;27.858;2024-02-26T03:28:53;34.83;;;15.83;;
6033;SDS011;3045;43.226;27.858;2024-02-26T03:31:21;28.07;;;16.00;;
6033;SDS011;3045;43.226;27.858;2024-02-26T03:33:48;19.67;;;13.50;;
6033;SDS011;3045;43.226;27.858;2024-02-26T03:36:15;18.13;;;13.43;;
6033;SDS011;3045;43.226;27.858;2024-02-26T03:38:42;21.30;;;13.97;;
6033;SDS011;3045;43.226;27.858;2024-02-26T03:41:09;17.97;;;14.27;;
6033;SDS011;3045;43.226;27.858;2024-02-26T03:43:36;24.50;;;15.77;;
6033;SDS011;3045;43.226;27.858;2024-02-26T03:46:03;16.87;;;13.40;;
6033;SDS011;3045;43.226;27.858;2024-02-26T03:48:34;18.53;;;13.77;;
6033;SDS011;3045;43.226;27.858;2024-02-26T03:51:02;21.67;;;14.10;;
6033;SDS011;3045;43.226;27.858;2024-02-26T03:53:29;23.77;;;14.97;;
6033;SDS011;3045;43.226;27.858;2024-02-26T03:55:56;18.67;;;14.03;;
6033;SDS011;3045;43.226;27.858;2024-02-26T03:58:23;16.83;;;14.67;;
6033;SDS011;3045;43.226;27.858;2024-02-26T04:00:50;28.80;;;16.37;;
6033;SDS011;3045;43.226;27.858;2024-02-26T04:03:17;27.17;;;17.57;;
6033;SDS011;3045;43.226;27.858;2024-02-26T04:05:46;27.33;;;18.90;;
6033;SDS011;3045;43.226;27.858;2024-02-26T04:08:13;25.43;;;18.77;;
6033;SDS011;3045;43.226;27.858;2024-02-26T04:10:40;31.70;;;17.90;;
6033;SDS011;3045;43.226;27.858;2024-02-26T04:13:07;29.00;;;18.27;;
6033;SDS011;3045;43.226;27.858;2024-02-26T04:15:34;25.90;;;16.47;;
6033;SDS011;3045;43.226;27.858;2024-02-26T04:18:02;28.60;;;14.70;;
6033;SDS011;3045;43.226;27.858;2024-02-26T04:20:29;24.53;;;14.03;;
6033;SDS011;3045;43.226;27.858;2024-02-26T04:22:58;18.60;;;12.50;;
6033;SDS011;3045;43.226;27.858;2024-02-26T04:25:25;21.80;;;12.33;;
6033;SDS011;3045;43.226;27.858;2024-02-26T04:27:52;17.80;;;11.43;;
6033;SDS011;3045;43.226;27.858;2024-02-26T04:30:19;14.03;;;9.27;;
6033;SDS011;3045;43.226;27.858;2024-02-26T04:32:46;15.60;;;10.57;;
6033;SDS011;3045;43.226;27.858;2024-02-26T04:35:13;11.50;;;9.83;;
